Time;durP1;ratioP1;P1;durP2;ratioP2;P2;SDS_P1;SDS_P2;PMS_P1;PMS_P2;Temp;Humidity;BMP_temperature;BMP_pressure;BME280_temperature;BME280_humidity;BME280_pressure;Samples;Min_cycle;Max_cycle;Signal;HPM_P1;HPM_P2
2023/12/08 00:00:53;;;;;;;3.60;2.90;;;18.30;52.90;;;;;;4971946;28;20665;-71
2023/12/08 00:03:19;;;;;;;3.10;2.90;;;18.30;52.90;;;;;;4965976;28;20199;-70
2023/12/08 00:05:45;;;;;;;2.97;2.78;;;18.30;52.90;;;;;;4971656;28;20189;-71
2023/12/08 00:08:10;;;;;;;2.95;2.75;;;18.30;52.80;;;;;;4971862;28;20695;-71
2023/12/08 00:10:36;;;;;;;3.00;2.80;;;18.30;52.90;;;;;;4971862;28;20300;-71
2023/12/08 00:13:02;;;;;;;3.15;2.95;;;18.30;52.80;;;;;;4974316;28;20186;-70
2023/12/08 00:15:27;;;;;;;3.15;2.85;;;18.40;53.00;;;;;;4940890;28;20186;-71
2023/12/08 00:17:53;;;;;;;3.22;2.92;;;18.40;53.00;;;;;;4959332;28;20198;-71
2023/12/08 00:20:19;;;;;;;3.13;2.83;;;18.40;53.00;;;;;;4984802;28;20217;-71
2023/12/08 00:22:44;;;;;;;3.65;3.33;;;18.30;52.80;;;;;;4972072;28;20196;-71
2023/12/08 00:25:11;;;;;;;3.30;3.00;;;18.40;53.00;;;;;;4968932;28;20201;-71
2023/12/08 00:27:36;;;;;;;3.22;2.92;;;18.40;53.00;;;;;;4970759;28;20213;-71
2023/12/08 00:30:04;;;;;;;3.47;3.17;;;18.40;53.10;;;;;;4972779;28;20291;-70
2023/12/08 00:32:29;;;;;;;3.00;2.80;;;18.30;52.90;;;;;;4971540;28;20197;-70
2023/12/08 00:34:55;;;;;;;3.28;3.03;;;18.30;52.90;;;;;;4986825;28;20192;-71
2023/12/08 00:37:21;;;;;;;3.75;3.03;;;18.30;53.00;;;;;;4964275;28;20202;-70
2023/12/08 00:39:46;;;;;;;2.92;2.72;;;18.30;52.90;;;;;;4971566;28;20201;-71
2023/12/08 00:42:13;;;;;;;3.17;2.88;;;18.30;53.00;;;;;;4990261;28;20213;-70
2023/12/08 00:44:39;;;;;;;2.90;2.70;;;18.40;52.90;;;;;;4959089;28;20211;-70
2023/12/08 00:47:05;;;;;;;3.30;3.00;;;18.40;53.00;;;;;;4976480;28;20214;-70
2023/12/08 00:49:30;;;;;;;2.92;2.65;;;18.30;52.90;;;;;;4973001;28;20256;-71
2023/12/08 00:51:56;;;;;;;3.42;3.13;;;18.40;53.00;;;;;;4975519;28;20261;-71
2023/12/08 00:54:22;;;;;;;3.20;2.90;;;18.40;53.00;;;;;;4975222;28;20197;-71
2023/12/08 00:56:48;;;;;;;3.50;3.20;;;18.40;52.90;;;;;;4976400;28;20217;-71
2023/12/08 00:59:14;;;;;;;2.80;2.60;;;18.30;52.80;;;;;;4982996;28;20248;-71
2023/12/08 01:01:39;;;;;;;2.80;2.60;;;18.30;52.80;;;;;;4976238;28;20202;-71
2023/12/08 01:04:05;;;;;;;3.42;2.83;;;18.30;52.80;;;;;;4959179;28;20194;-71
2023/12/08 01:06:31;;;;;;;2.70;2.50;;;18.30;52.80;;;;;;4975207;28;20220;-71
2023/12/08 01:08:56;;;;;;;3.47;2.80;;;18.40;52.90;;;;;;4974816;28;20297;-71
2023/12/08 01:11:22;;;;;;;2.80;2.60;;;18.40;53.00;;;;;;4975200;28;20213;-71
2023/12/08 01:13:48;;;;;;;2.95;2.75;;;18.40;52.90;;;;;;4975012;28;20224;-71
2023/12/08 01:16:13;;;;;;;3.20;2.90;;;18.40;53.00;;;;;;4959234;28;20224;-71
2023/12/08 01:18:39;;;;;;;3.25;2.95;;;18.40;53.00;;;;;;4991040;28;20208;-70
2023/12/08 01:21:06;;;;;;;3.22;2.92;;;18.40;52.90;;;;;;4975931;28;20197;-70
2023/12/08 01:23:31;;;;;;;2.92;2.72;;;18.30;52.80;;;;;;4974575;28;20284;-71
2023/12/08 01:25:57;;;;;;;3.10;2.90;;;18.40;52.90;;;;;;4974825;28;20220;-71
2023/12/08 01:28:23;;;;;;;3.30;3.00;;;18.40;52.90;;;;;;5006514;28;20248;-71
2023/12/08 01:30:48;;;;;;;3.42;3.13;;;18.30;52.80;;;;;;4990543;28;20550;-70
2023/12/08 01:33:14;;;;;;;2.70;2.50;;;18.40;52.90;;;;;;4974607;28;20193;-71
2023/12/08 01:35:40;;;;;;;2.80;2.60;;;18.40;53.00;;;;;;4974750;28;20210;-69
2023/12/08 01:38:06;;;;;;;3.33;2.70;;;18.30;53.00;;;;;;4981863;28;20190;-69
2023/12/08 01:40:31;;;;;;;3.60;3.30;;;18.40;53.00;;;;;;5006359;28;20236;-71
2023/12/08 01:42:57;;;;;;;3.15;2.85;;;18.40;53.70;;;;;;4981342;28;20196;-71
2023/12/08 01:45:23;;;;;;;3.65;3.35;;;18.40;52.90;;;;;;4974789;28;20186;-70
2023/12/08 01:47:49;;;;;;;3.13;2.88;;;18.30;52.90;;;;;;4973698;28;20206;-70
2023/12/08 01:50:17;;;;;;;2.85;2.65;;;18.30;52.80;;;;;;4971104;28;20260;-71
2023/12/08 01:52:44;;;;;;;3.28;3.08;;;18.40;53.00;;;;;;4972900;28;20383;-70
2023/12/08 01:55:11;;;;;;;3.17;2.90;;;18.30;52.90;;;;;;4975406;28;20248;-70
2023/12/08 01:57:37;;;;;;;2.90;2.65;;;18.40;52.90;;;;;;4973894;28;20194;-71
2023/12/08 02:00:04;;;;;;;2.90;2.70;;;18.40;52.90;;;;;;4990118;28;20205;-71
2023/12/08 02:02:34;;;;;;;3.30;3.00;;;18.40;53.00;;;;;;4973923;28;20205;-71
2023/12/08 02:05:02;;;;;;;3.28;2.85;;;18.40;53.00;;;;;;4974097;28;20337;-71
2023/12/08 02:07:29;;;;;;;3.15;2.85;;;18.40;52.90;;;;;;4974210;28;20213;-71
2023/12/08 02:09:55;;;;;;;3.10;2.90;;;18.40;52.90;;;;;;4997078;28;20264;-71
2023/12/08 02:12:22;;;;;;;3.20;2.90;;;18.40;52.90;;;;;;4997399;28;20197;-71
2023/12/08 02:14:51;;;;;;;3.00;2.80;;;18.40;53.00;;;;;;4973648;28;20197;-71
2023/12/08 02:17:24;;;;;;;3.30;3.00;;;18.40;52.90;;;;;;4973723;28;20198;-71
2023/12/08 02:19:51;;;;;;;3.35;3.10;;;18.40;52.90;;;;;;4996460;28;20220;-71
2023/12/08 02:22:18;;;;;;;3.65;3.22;;;18.40;52.90;;;;;;4974416;28;20186;-71
2023/12/08 02:24:44;;;;;;;2.70;2.50;;;18.40;52.90;;;;;;4989560;28;20193;-71
2023/12/08 02:27:11;;;;;;;2.92;2.67;;;18.40;52.90;;;;;;4970412;28;20218;-72
2023/12/08 02:29:37;;;;;;;2.90;2.70;;;18.40;53.00;;;;;;4970341;28;20210;-71
2023/12/08 02:32:17;;;;;;;3.40;3.20;;;18.30;52.80;;;;;;4973555;28;20249;-71
2023/12/08 02:34:45;;;;;;;3.50;3.20;;;18.40;53.00;;;;;;4996810;28;20192;-71
2023/12/08 02:37:14;;;;;;;3.03;2.83;;;18.40;52.90;;;;;;4989453;28;20217;-71
2023/12/08 02:39:41;;;;;;;3.40;3.10;;;18.40;52.90;;;;;;4989303;28;20714;-71
2023/12/08 02:42:07;;;;;;;3.42;3.10;;;18.40;52.90;;;;;;4973265;28;20182;-70
2023/12/08 02:44:33;;;;;;;3.72;3.35;;;18.30;52.80;;;;;;4973146;28;20641;-70
2023/12/08 02:47:00;;;;;;;3.50;3.20;;;18.30;53.40;;;;;;4973571;28;20260;-71
2023/12/08 02:49:25;;;;;;;3.42;3.13;;;18.40;52.90;;;;;;4986048;28;20218;-70
2023/12/08 02:51:51;;;;;;;3.83;3.47;;;18.40;52.90;;;;;;4979205;28;20187;-71
2023/12/08 02:54:17;;;;;;;4.15;3.75;;;18.40;52.90;;;;;;4995199;28;20192;-71
2023/12/08 02:56:42;;;;;;;3.53;3.22;;;18.40;52.90;;;;;;4973889;28;20286;-71
2023/12/08 02:59:08;;;;;;;3.67;3.38;;;18.40;52.90;;;;;;4973179;28;20201;-71
2023/12/08 03:01:34;;;;;;;3.63;3.30;;;18.40;52.90;;;;;;4973069;28;20190;-71
2023/12/08 03:03:59;;;;;;;3.40;3.10;;;18.40;52.90;;;;;;4988311;28;20213;-71
2023/12/08 03:06:25;;;;;;;3.58;3.22;;;18.40;53.00;;;;;;4973364;28;20218;-71
2023/12/08 03:08:51;;;;;;;3.63;3.33;;;18.40;52.90;;;;;;4974009;28;20227;-70
2023/12/08 03:11:16;;;;;;;3.53;3.22;;;18.40;53.00;;;;;;4974061;28;20194;-70
2023/12/08 03:13:42;;;;;;;3.70;3.30;;;18.40;52.90;;;;;;4989286;28;20193;-71
2023/12/08 03:16:08;;;;;;;3.53;3.22;;;18.40;53.00;;;;;;4976340;28;20189;-71
2023/12/08 03:18:34;;;;;;;3.60;3.30;;;18.40;53.00;;;;;;4972553;28;20189;-71
2023/12/08 03:20:59;;;;;;;3.38;3.08;;;18.40;53.00;;;;;;4970475;28;20197;-70
2023/12/08 03:23:25;;;;;;;3.20;3.00;;;18.40;52.90;;;;;;4950208;28;20228;-71
2023/12/08 03:25:51;;;;;;;3.40;3.10;;;18.40;53.00;;;;;;4967754;28;20205;-69
2023/12/08 03:28:16;;;;;;;3.67;3.38;;;18.40;53.00;;;;;;4969082;28;20238;-70
2023/12/08 03:30:42;;;;;;;3.97;3.55;;;18.40;52.90;;;;;;4955753;28;20272;-70
2023/12/08 03:33:08;;;;;;;3.50;3.20;;;18.40;53.00;;;;;;4972616;28;20197;-71
2023/12/08 03:35:34;;;;;;;4.03;3.45;;;18.40;53.00;;;;;;4963118;28;20205;-70
2023/12/08 03:37:59;;;;;;;3.60;3.30;;;18.40;53.00;;;;;;4967066;28;20200;-71
2023/12/08 03:40:25;;;;;;;3.33;3.03;;;18.30;52.90;;;;;;4966359;28;20269;-70
2023/12/08 03:42:51;;;;;;;3.95;3.55;;;18.40;53.00;;;;;;4976205;28;20194;-71
2023/12/08 03:45:16;;;;;;;3.50;3.20;;;18.40;52.90;;;;;;4974371;28;20197;-71
2023/12/08 03:47:42;;;;;;;3.45;3.15;;;18.40;52.90;;;;;;4988261;28;20229;-71
2023/12/08 03:50:08;;;;;;;3.50;3.20;;;18.40;52.90;;;;;;4974082;28;20219;-70
2023/12/08 03:52:35;;;;;;;3.10;2.80;;;18.40;52.90;;;;;;4956749;28;20221;-71
2023/12/08 03:55:00;;;;;;;3.28;2.97;;;18.40;52.90;;;;;;4974098;28;20695;-71
2023/12/08 03:57:26;;;;;;;3.20;2.90;;;18.40;52.90;;;;;;4979782;28;20201;-71
2023/12/08 03:59:52;;;;;;;4.03;3.10;;;18.40;53.00;;;;;;4969749;28;20209;-70
2023/12/08 04:02:18;;;;;;;3.42;3.13;;;18.40;53.00;;;;;;4967905;28;20669;-71
2023/12/08 04:04:43;;;;;;;3.25;2.95;;;18.40;52.90;;;;;;4966084;28;20205;-71
2023/12/08 04:07:09;;;;;;;3.10;2.90;;;18.40;52.90;;;;;;4984916;28;20237;-70
2023/12/08 04:09:35;;;;;;;3.03;2.83;;;18.40;53.00;;;;;;4978240;28;20216;-70
2023/12/08 04:12:00;;;;;;;3.40;3.10;;;18.40;53.00;;;;;;4980420;28;20691;-71
2023/12/08 04:14:26;;;;;;;3.60;3.30;;;18.40;52.90;;;;;;4988378;28;20189;-71
2023/12/08 04:16:52;;;;;;;2.78;2.58;;;18.40;52.90;;;;;;4958003;28;20221;-71
2023/12/08 04:19:20;;;;;;;3.20;3.00;;;18.40;53.00;;;;;;4988081;28;20205;-71
2023/12/08 04:21:46;;;;;;;3.60;3.30;;;18.40;53.00;;;;;;4984832;28;20225;-71
2023/12/08 04:24:12;;;;;;;3.28;2.97;;;18.40;53.00;;;;;;4968063;28;20330;-71
2023/12/08 04:26:43;;;;;;;3.42;3.13;;;18.40;53.00;;;;;;4970347;28;20218;-70
2023/12/08 04:29:09;;;;;;;3.58;3.28;;;18.40;53.00;;;;;;4963071;28;20268;-71
2023/12/08 04:31:34;;;;;;;3.40;3.10;;;18.40;52.90;;;;;;4960767;28;20202;-71
2023/12/08 04:34:00;;;;;;;3.67;3.38;;;18.40;53.00;;;;;;4981754;28;20201;-71
2023/12/08 04:36:26;;;;;;;3.40;3.10;;;18.40;53.00;;;;;;4982568;28;20193;-71
2023/12/08 04:38:51;;;;;;;3.30;3.00;;;18.40;52.90;;;;;;4982163;28;20213;-71
2023/12/08 04:41:17;;;;;;;3.47;3.22;;;18.40;53.00;;;;;;4968671;28;20202;-71
2023/12/08 04:43:43;;;;;;;3.30;3.00;;;18.40;53.60;;;;;;4963026;28;20185;-71
2023/12/08 04:46:09;;;;;;;2.90;2.70;;;18.40;53.00;;;;;;4976774;28;20756;-71
2023/12/08 04:48:35;;;;;;;3.33;3.03;;;18.40;53.00;;;;;;4976424;28;20284;-70
2023/12/08 04:51:00;;;;;;;3.10;2.90;;;18.40;53.00;;;;;;4972534;28;20193;-71
2023/12/08 04:53:26;;;;;;;3.13;2.90;;;18.40;52.90;;;;;;4971512;28;20189;-70
2023/12/08 04:55:52;;;;;;;3.42;3.13;;;18.40;52.90;;;;;;4953205;28;20202;-71
2023/12/08 04:58:17;;;;;;;2.97;2.67;;;18.40;52.90;;;;;;4972506;28;20217;-70
2023/12/08 05:00:43;;;;;;;3.30;3.10;;;18.40;53.00;;;;;;4987452;28;20225;-71
2023/12/08 05:03:09;;;;;;;3.28;2.97;;;18.40;53.00;;;;;;4987592;28;20193;-71
2023/12/08 05:05:38;;;;;;;3.10;2.90;;;18.40;53.00;;;;;;4971370;28;20193;-70
2023/12/08 05:08:04;;;;;;;2.83;2.63;;;18.40;53.00;;;;;;4982236;28;20213;-70
2023/12/08 05:10:29;;;;;;;2.70;2.50;;;18.40;52.90;;;;;;4987544;28;20209;-71
2023/12/08 05:12:55;;;;;;;2.85;2.65;;;18.40;53.00;;;;;;4977268;28;20190;-70
2023/12/08 05:15:21;;;;;;;3.17;2.85;;;18.40;53.10;;;;;;4971431;28;20240;-71
2023/12/08 05:17:47;;;;;;;3.17;2.88;;;18.40;53.00;;;;;;4974471;28;20557;-69
2023/12/08 05:20:13;;;;;;;2.92;2.72;;;18.40;53.00;;;;;;4974635;28;20205;-70
2023/12/08 05:22:39;;;;;;;3.00;2.70;;;18.40;53.10;;;;;;4987438;28;20213;-71
2023/12/08 05:25:05;;;;;;;2.78;2.58;;;18.40;53.00;;;;;;4971076;28;20194;-70
2023/12/08 05:27:31;;;;;;;3.05;2.75;;;18.40;53.10;;;;;;4955332;28;20312;-70
2023/12/08 05:29:56;;;;;;;3.30;3.00;;;18.40;53.00;;;;;;4974382;28;20223;-71
2023/12/08 05:32:23;;;;;;;2.88;2.65;;;18.40;53.00;;;;;;4991195;28;20288;-71
2023/12/08 05:34:48;;;;;;;2.85;2.65;;;18.40;53.00;;;;;;4974669;28;20204;-71
2023/12/08 05:37:14;;;;;;;3.22;3.03;;;18.40;53.00;;;;;;4963005;28;20198;-70
2023/12/08 05:39:40;;;;;;;3.20;3.00;;;18.40;53.00;;;;;;4973474;28;20213;-70
2023/12/08 05:42:06;;;;;;;2.83;2.63;;;18.40;53.00;;;;;;4981375;28;20672;-71
2023/12/08 05:44:31;;;;;;;3.47;3.17;;;18.40;53.00;;;;;;4974278;28;20240;-71
2023/12/08 05:46:57;;;;;;;3.20;2.97;;;18.40;53.00;;;;;;4976230;28;20273;-70
2023/12/08 05:49:23;;;;;;;3.70;3.40;;;18.40;53.00;;;;;;4993829;28;20582;-70
2023/12/08 05:51:48;;;;;;;3.28;3.00;;;18.40;53.00;;;;;;4977373;28;20201;-70
2023/12/08 05:54:14;;;;;;;3.40;3.10;;;18.40;53.00;;;;;;4975217;28;20244;-71
2023/12/08 05:56:40;;;;;;;3.13;2.83;;;18.40;53.10;;;;;;4967400;28;20200;-71
2023/12/08 05:59:05;;;;;;;3.38;3.17;;;18.50;53.20;;;;;;4973873;28;20213;-72
2023/12/08 06:01:31;;;;;;;3.05;2.85;;;18.40;53.00;;;;;;4977380;28;20248;-68
2023/12/08 06:03:57;;;;;;;3.00;2.80;;;18.40;53.00;;;;;;4959947;28;20222;-71
2023/12/08 06:06:23;;;;;;;3.58;3.28;;;18.40;53.10;;;;;;4970837;28;20220;-71
2023/12/08 06:08:49;;;;;;;3.40;3.20;;;18.40;53.10;;;;;;4971528;28;20293;-70
2023/12/08 06:11:15;;;;;;;3.13;2.92;;;18.50;53.20;;;;;;4960846;28;20702;-70
2023/12/08 06:13:41;;;;;;;3.50;3.20;;;18.50;53.20;;;;;;4973848;28;20189;-70
2023/12/08 06:16:07;;;;;;;3.15;2.95;;;18.40;53.20;;;;;;4973557;28;20217;-70
2023/12/08 06:18:33;;;;;;;3.20;3.00;;;18.50;53.20;;;;;;4974852;28;20181;-71
2023/12/08 06:20:58;;;;;;;2.90;2.70;;;18.50;53.20;;;;;;4980124;28;20194;-71
2023/12/08 06:23:24;;;;;;;2.80;2.60;;;18.50;53.20;;;;;;4973709;28;20231;-70
2023/12/08 06:25:50;;;;;;;3.13;2.92;;;18.50;53.20;;;;;;4957605;28;20193;-71
2023/12/08 06:28:16;;;;;;;3.08;2.88;;;18.50;53.20;;;;;;4989273;28;20189;-71
2023/12/08 06:30:41;;;;;;;3.10;2.90;;;18.50;53.20;;;;;;4977302;28;20228;-72
2023/12/08 06:33:07;;;;;;;2.60;2.40;;;18.50;53.30;;;;;;4989272;28;20194;-72
2023/12/08 06:35:33;;;;;;;3.05;2.47;;;18.50;53.20;;;;;;4989833;28;20217;-71
2023/12/08 06:37:58;;;;;;;3.45;2.90;;;18.50;53.20;;;;;;4976088;28;20204;-71
2023/12/08 06:40:24;;;;;;;2.60;2.40;;;18.50;53.20;;;;;;4976215;28;20236;-71
2023/12/08 06:42:50;;;;;;;2.53;2.33;;;18.50;53.20;;;;;;4977224;28;20197;-71
2023/12/08 06:45:16;;;;;;;3.20;2.90;;;18.50;53.20;;;;;;4993401;28;20197;-71
2023/12/08 06:47:41;;;;;;;2.65;2.45;;;18.50;53.20;;;;;;4989235;28;20213;-71
2023/12/08 06:50:07;;;;;;;2.80;2.60;;;18.50;53.20;;;;;;4960955;28;20232;-72
2023/12/08 06:52:33;;;;;;;2.70;2.50;;;18.50;53.30;;;;;;4989288;28;20277;-72
2023/12/08 06:54:59;;;;;;;2.83;2.63;;;18.50;53.30;;;;;;4973055;28;20201;-70
2023/12/08 06:57:24;;;;;;;2.60;2.40;;;18.50;54.00;;;;;;4989098;28;20200;-71
2023/12/08 06:59:52;;;;;;;2.63;2.42;;;18.50;53.30;;;;;;4973013;28;20224;-71
2023/12/08 07:02:17;;;;;;;3.10;2.90;;;18.50;53.30;;;;;;4989351;28;20194;-72
2023/12/08 07:04:43;;;;;;;3.05;2.75;;;18.50;53.30;;;;;;4956175;28;20241;-70
2023/12/08 07:07:09;;;;;;;2.58;2.38;;;18.50;53.30;;;;;;4972761;28;20217;-71
2023/12/08 07:09:35;;;;;;;2.70;2.50;;;18.50;53.30;;;;;;4956806;28;20212;-71
2023/12/08 07:12:01;;;;;;;2.75;2.55;;;18.50;53.40;;;;;;4973193;28;20189;-71
2023/12/08 07:14:26;;;;;;;2.67;2.47;;;18.50;53.40;;;;;;4988741;28;20194;-71
2023/12/08 07:16:52;;;;;;;2.50;2.30;;;18.50;53.40;;;;;;4947709;29;20205;-71
2023/12/08 07:19:18;;;;;;;2.60;2.40;;;18.50;53.40;;;;;;4974970;28;20703;-71
2023/12/08 07:21:44;;;;;;;2.65;2.45;;;18.50;53.50;;;;;;4956551;28;20684;-71
2023/12/08 07:24:11;;;;;;;2.90;2.65;;;18.50;53.50;;;;;;4974443;28;20185;-71
2023/12/08 07:26:37;;;;;;;2.30;2.10;;;18.50;53.50;;;;;;4976928;28;20225;-71
2023/12/08 07:29:03;;;;;;;2.20;2.10;;;18.50;53.50;;;;;;4983336;28;20300;-71
2023/12/08 07:31:29;;;;;;;2.30;2.08;;;18.50;53.50;;;;;;4973541;28;20236;-71
2023/12/08 07:33:56;;;;;;;2.22;2.05;;;18.50;53.50;;;;;;4975602;28;20198;-71
2023/12/08 07:36:22;;;;;;;2.20;2.10;;;18.50;53.50;;;;;;4980361;28;20192;-71
2023/12/08 07:38:47;;;;;;;2.55;2.35;;;18.50;53.60;;;;;;4973265;28;20217;-71
2023/12/08 07:41:13;;;;;;;2.17;1.98;;;18.50;53.60;;;;;;4980379;28;20220;-71
2023/12/08 07:43:39;;;;;;;2.47;2.15;;;18.50;53.60;;;;;;4971005;28;20202;-70
2023/12/08 07:46:07;;;;;;;2.20;2.10;;;18.50;53.60;;;;;;4973478;28;20193;-71
2023/12/08 07:48:33;;;;;;;2.13;1.92;;;18.60;53.70;;;;;;4991538;28;20189;-71
2023/12/08 07:50:59;;;;;;;1.92;1.83;;;18.60;53.70;;;;;;4974872;28;20190;-71
2023/12/08 07:53:24;;;;;;;1.95;1.85;;;18.50;53.60;;;;;;4977260;28;20208;-71
2023/12/08 07:55:50;;;;;;;2.20;2.00;;;18.60;53.70;;;;;;4972159;28;20676;-72
2023/12/08 07:58:16;;;;;;;2.20;2.00;;;18.60;53.70;;;;;;4971781;28;20198;-70
2023/12/08 08:00:42;;;;;;;2.15;1.95;;;18.60;53.80;;;;;;4974955;28;20213;-71
2023/12/08 08:03:08;;;;;;;2.25;2.05;;;18.50;53.70;;;;;;4978153;28;20204;-71
2023/12/08 08:05:34;;;;;;;2.45;1.75;;;18.60;53.80;;;;;;4980602;28;20186;-71
2023/12/08 08:08:02;;;;;;;1.95;1.80;;;18.60;53.80;;;;;;4958526;28;20213;-71
2023/12/08 08:10:28;;;;;;;2.00;1.85;;;18.60;53.80;;;;;;4952944;28;20221;-71
2023/12/08 08:12:54;;;;;;;2.00;1.80;;;18.60;53.90;;;;;;4972082;28;20277;-71
2023/12/08 08:15:19;;;;;;;2.15;1.95;;;18.50;53.80;;;;;;4971960;28;20198;-71
2023/12/08 08:17:45;;;;;;;2.58;2.38;;;18.60;53.90;;;;;;4971669;28;20185;-71
2023/12/08 08:20:11;;;;;;;2.63;2.42;;;18.60;54.00;;;;;;4982620;28;20217;-71
2023/12/08 08:22:37;;;;;;;2.83;2.22;;;18.60;53.90;;;;;;4990018;28;20713;-71
2023/12/08 08:25:03;;;;;;;3.20;2.50;;;18.60;53.90;;;;;;4968660;28;20196;-71
2023/12/08 08:27:29;;;;;;;2.53;2.33;;;18.60;53.90;;;;;;4987522;28;20240;-71
2023/12/08 08:29:55;;;;;;;2.70;2.50;;;18.60;54.00;;;;;;4972849;28;20708;-72
2023/12/08 08:32:21;;;;;;;2.70;2.40;;;18.60;54.00;;;;;;4960728;28;20189;-71
2023/12/08 08:34:47;;;;;;;2.30;2.10;;;18.60;54.00;;;;;;4971660;28;20194;-70
2023/12/08 08:37:13;;;;;;;2.55;2.35;;;18.60;54.60;;;;;;4969164;28;20199;-71
2023/12/08 08:39:38;;;;;;;2.47;2.22;;;18.60;54.00;;;;;;4971551;28;20304;-71
2023/12/08 08:42:04;;;;;;;3.00;2.67;;;18.60;54.00;;;;;;4952696;28;20276;-71
2023/12/08 08:44:30;;;;;;;2.58;2.33;;;18.60;54.00;;;;;;4969048;28;20201;-71
2023/12/08 08:46:56;;;;;;;2.47;2.22;;;18.60;54.00;;;;;;4974982;28;20222;-70
2023/12/08 08:49:23;;;;;;;2.85;2.45;;;18.60;54.00;;;;;;4979789;28;20217;-71
2023/12/08 08:51:49;;;;;;;2.50;2.22;;;18.60;54.00;;;;;;4963551;28;20241;-71
2023/12/08 08:54:15;;;;;;;2.10;1.90;;;18.60;54.00;;;;;;4985255;28;20200;-71
2023/12/08 08:56:42;;;;;;;2.10;1.98;;;18.60;54.10;;;;;;4971406;28;20280;-71
2023/12/08 08:59:08;;;;;;;2.42;2.22;;;18.60;54.10;;;;;;4967973;28;20224;-71
2023/12/08 09:01:34;;;;;;;2.40;2.20;;;18.60;54.10;;;;;;4971548;28;20198;-71
2023/12/08 09:04:00;;;;;;;2.20;2.10;;;18.60;54.20;;;;;;4990557;28;20202;-71
2023/12/08 09:06:25;;;;;;;2.25;2.10;;;18.60;54.10;;;;;;4990088;28;20677;-71
2023/12/08 09:08:51;;;;;;;2.10;2.00;;;18.60;54.10;;;;;;4958911;28;20228;-71
2023/12/08 09:11:17;;;;;;;1.90;1.80;;;18.60;54.10;;;;;;4965151;28;20284;-71
2023/12/08 09:13:43;;;;;;;2.35;2.15;;;18.60;54.10;;;;;;4958296;28;20723;-71
2023/12/08 09:16:08;;;;;;;2.10;1.90;;;18.70;54.20;;;;;;4958672;28;20190;-71
2023/12/08 09:18:35;;;;;;;2.65;2.10;;;18.60;54.10;;;;;;4974583;28;20189;-71
2023/12/08 09:21:01;;;;;;;1.88;1.77;;;18.60;54.10;;;;;;4987667;28;20281;-71
2023/12/08 09:23:27;;;;;;;1.92;1.55;;;18.70;54.20;;;;;;4989959;28;20325;-71
2023/12/08 09:25:53;;;;;;;3.13;1.80;;;18.60;54.20;;;;;;4974663;28;20244;-71
2023/12/08 09:28:20;;;;;;;1.80;1.70;;;18.60;54.10;;;;;;4959773;28;20689;-71
2023/12/08 09:30:47;;;;;;;2.13;1.92;;;18.60;54.20;;;;;;4974838;28;20356;-72
2023/12/08 09:33:13;;;;;;;2.00;1.90;;;18.70;54.20;;;;;;4970104;28;20277;-71
2023/12/08 09:35:38;;;;;;;2.25;1.88;;;18.60;54.20;;;;;;4991221;28;20186;-71
2023/12/08 09:38:04;;;;;;;1.60;1.50;;;18.70;54.20;;;;;;4946704;29;20200;-71
2023/12/08 09:40:33;;;;;;;1.75;1.65;;;18.60;54.20;;;;;;4975285;28;20240;-72
2023/12/08 09:43:25;;;;;;;1.67;1.58;;;18.70;54.30;;;;;;4963726;28;20209;-71
2023/12/08 09:45:54;;;;;;;1.88;1.77;;;18.70;54.30;;;;;;4981216;28;20253;-71
2023/12/08 09:48:25;;;;;;;1.95;1.73;;;18.70;54.30;;;;;;4987909;28;20216;-71
2023/12/08 09:50:53;;;;;;;1.80;1.70;;;18.70;54.30;;;;;;4981260;28;20744;-71
2023/12/08 09:53:20;;;;;;;1.98;1.88;;;18.70;54.90;;;;;;4971612;28;20740;-71
2023/12/08 09:55:47;;;;;;;1.40;1.30;;;18.70;54.30;;;;;;4990371;28;20200;-71
2023/12/08 09:58:16;;;;;;;2.22;1.60;;;18.70;54.30;;;;;;4980355;28;20202;-71
2023/12/08 10:00:42;;;;;;;1.60;1.50;;;18.70;54.30;;;;;;4973735;28;20236;-71
2023/12/08 10:03:08;;;;;;;1.55;1.45;;;18.70;54.30;;;;;;4974140;28;20680;-71
2023/12/08 10:05:34;;;;;;;1.80;1.60;;;18.70;54.40;;;;;;4981114;28;20186;-71
2023/12/08 10:08:00;;;;;;;1.67;1.58;;;18.70;54.40;;;;;;4959487;28;20224;-71
2023/12/08 10:10:26;;;;;;;1.42;1.33;;;18.70;54.40;;;;;;4975134;28;20217;-71
2023/12/08 10:12:52;;;;;;;1.40;1.30;;;18.70;54.40;;;;;;4980564;28;20252;-71
2023/12/08 10:15:18;;;;;;;1.75;1.65;;;18.70;54.40;;;;;;4958337;28;20221;-71
2023/12/08 10:17:49;;;;;;;1.40;1.30;;;18.70;54.40;;;;;;4990164;28;20221;-71
2023/12/08 10:20:17;;;;;;;1.45;1.35;;;18.70;54.40;;;;;;4981683;28;20309;-71
2023/12/08 10:22:53;;;;;;;1.55;1.45;;;18.70;54.40;;;;;;4973805;28;20196;-71
2023/12/08 10:25:26;;;;;;;1.45;1.35;;;18.70;54.40;;;;;;4975019;28;20201;-72
2023/12/08 10:27:56;;;;;;;1.50;1.40;;;18.70;54.40;;;;;;4968050;28;20315;-71
2023/12/08 10:30:26;;;;;;;1.42;1.33;;;18.70;54.40;;;;;;4957383;28;20229;-71
2023/12/08 10:32:51;;;;;;;1.48;1.27;;;18.70;54.50;;;;;;4972774;28;20197;-71
2023/12/08 10:35:18;;;;;;;1.40;1.30;;;18.70;54.50;;;;;;4970216;28;20194;-72
2023/12/08 10:37:44;;;;;;;1.30;1.20;;;18.70;54.50;;;;;;4976932;28;20181;-71
2023/12/08 10:40:12;;;;;;;1.35;1.25;;;18.80;54.50;;;;;;4989422;28;20214;-72
2023/12/08 10:42:39;;;;;;;1.48;1.38;;;18.70;54.50;;;;;;4957443;28;20202;-72
2023/12/08 10:45:13;;;;;;;1.30;1.17;;;18.70;54.50;;;;;;4973385;28;20569;-71
2023/12/08 10:47:41;;;;;;;1.50;1.40;;;18.80;54.60;;;;;;4974291;28;20210;-71
2023/12/08 10:50:09;;;;;;;1.58;1.48;;;18.70;54.50;;;;;;4973339;28;20205;-71
2023/12/08 10:52:38;;;;;;;1.38;1.27;;;18.70;54.60;;;;;;4972002;28;20245;-72
2023/12/08 10:55:06;;;;;;;1.30;1.20;;;18.70;54.60;;;;;;4973110;28;20254;-71
2023/12/08 10:57:34;;;;;;;1.42;1.30;;;18.80;54.60;;;;;;4972925;28;20204;-71
2023/12/08 11:03:03;;;;;;;1.40;1.20;;;18.70;54.60;;;;;;4974582;28;20233;-71
2023/12/08 11:05:38;;;;;;;1.52;1.42;;;18.70;54.60;;;;;;4950389;28;20211;-71
2023/12/08 11:08:12;;;;;;;1.67;1.58;;;18.80;54.70;;;;;;4956568;28;20213;-71
2023/12/08 11:10:43;;;;;;;1.20;1.10;;;18.70;54.60;;;;;;4964930;28;20213;-71
2023/12/08 11:13:25;;;;;;;1.40;1.30;;;18.80;54.70;;;;;;4974575;28;20204;-71
2023/12/08 11:16:37;;;;;;;1.30;1.20;;;18.70;55.20;;;;;;4980485;28;20198;-71
2023/12/08 11:19:05;;;;;;;1.40;1.30;;;18.70;54.60;;;;;;4973802;28;20250;-71
2023/12/08 11:21:31;;;;;;;1.23;1.13;;;18.80;54.70;;;;;;4964448;28;20208;-71
2023/12/08 11:23:58;;;;;;;1.10;1.00;;;18.80;54.70;;;;;;4976775;28;20195;-71
2023/12/08 11:26:48;;;;;;;1.30;1.20;;;18.70;54.60;;;;;;4969052;28;20214;-70
2023/12/08 11:29:40;;;;;;;1.48;1.30;;;18.80;54.70;;;;;;4980820;28;20713;-71
2023/12/08 11:32:37;;;;;;;1.40;1.30;;;18.80;54.70;;;;;;4967192;28;20633;-71
2023/12/08 11:35:09;;;;;;;1.67;1.50;;;18.80;54.70;;;;;;4956594;28;20197;-71
2023/12/08 11:37:35;;;;;;;1.20;1.10;;;18.80;54.70;;;;;;4973498;28;20193;-70
2023/12/08 11:40:11;;;;;;;1.65;1.10;;;19.00;55.70;;;;;;4973481;28;20213;-70
2023/12/08 11:42:41;;;;;;;1.30;1.20;;;19.00;55.80;;;;;;4980236;28;20208;-70
2023/12/08 11:45:09;;;;;;;1.20;1.10;;;19.00;55.80;;;;;;4962131;28;20197;-70
2023/12/08 11:47:35;;;;;;;1.30;1.20;;;18.90;55.70;;;;;;4972013;28;20209;-71
2023/12/08 11:50:03;;;;;;;1.70;1.25;;;18.90;55.70;;;;;;4973127;28;20225;-71
2023/12/08 11:52:32;;;;;;;1.85;1.30;;;18.90;55.70;;;;;;4979968;28;20195;-72
2023/12/08 11:55:09;;;;;;;1.20;1.10;;;18.90;55.60;;;;;;4971910;28;20189;-70
2023/12/08 11:57:59;;;;;;;2.03;1.27;;;18.90;55.60;;;;;;4979844;28;20192;-69
2023/12/08 12:00:27;;;;;;;2.35;1.30;;;18.90;55.60;;;;;;4969780;28;20260;-71
2023/12/08 12:02:56;;;;;;;0.90;0.90;;;18.90;55.60;;;;;;4968569;28;20256;-71
2023/12/08 12:05:22;;;;;;;1.05;1.00;;;18.80;55.50;;;;;;4975646;28;20193;-71
2023/12/08 12:07:53;;;;;;;1.20;1.10;;;18.90;55.60;;;;;;4972739;28;20216;-69
2023/12/08 12:10:29;;;;;;;1.30;1.20;;;18.90;55.50;;;;;;4971878;28;20232;-71
2023/12/08 12:12:56;;;;;;;1.55;1.00;;;18.80;55.40;;;;;;4971845;28;20196;-71
2023/12/08 12:15:25;;;;;;;1.35;1.00;;;18.90;55.50;;;;;;4979835;28;20235;-71
2023/12/08 12:17:54;;;;;;;1.02;1.00;;;18.90;55.50;;;;;;4971293;28;20260;-69
2023/12/08 12:20:20;;;;;;;1.40;1.30;;;18.90;55.50;;;;;;4987853;28;20697;-70
2023/12/08 12:22:46;;;;;;;1.30;1.20;;;18.80;55.40;;;;;;4979550;28;20241;-71
2023/12/08 12:25:12;;;;;;;1.00;1.00;;;18.80;55.50;;;;;;4971883;28;20208;-71
2023/12/08 12:27:43;;;;;;;1.30;1.20;;;18.80;55.40;;;;;;4971792;28;20218;-70
2023/12/08 12:30:10;;;;;;;1.25;1.15;;;18.80;55.40;;;;;;4971831;28;20214;-70
2023/12/08 12:32:37;;;;;;;1.10;1.00;;;18.80;55.40;;;;;;4971781;28;20185;-70
2023/12/08 12:35:04;;;;;;;1.40;1.30;;;18.80;55.40;;;;;;4971808;28;20195;-71
2023/12/08 12:37:30;;;;;;;1.00;0.98;;;18.80;55.40;;;;;;4996763;28;20214;-70
2023/12/08 12:39:57;;;;;;;1.20;1.10;;;18.80;55.40;;;;;;4978776;28;20303;-71
2023/12/08 12:42:23;;;;;;;1.40;0.98;;;18.80;55.30;;;;;;4979880;28;20194;-71
2023/12/08 12:44:49;;;;;;;1.08;0.98;;;18.80;55.40;;;;;;4974771;28;20189;-71
2023/12/08 12:47:26;;;;;;;1.10;1.00;;;18.80;55.40;;;;;;4991612;28;20248;-71
2023/12/08 12:50:04;;;;;;;1.05;0.95;;;18.80;55.40;;;;;;4975154;28;20280;-71